createdAt,value
2022-09-01T00:00:02.730Z,17.03
2022-09-01T00:02:33.312Z,17.02
2022-09-01T00:05:04.533Z,17.02
2022-09-01T00:07:32.163Z,17.02
2022-09-01T00:10:00.270Z,17.03
2022-09-01T00:12:30.452Z,17.02
2022-09-01T00:14:58.781Z,17.03
2022-09-01T00:17:26.395Z,17.03
2022-09-01T00:19:53.937Z,17.03
2022-09-01T00:22:21.509Z,17.03
2022-09-01T00:24:49.065Z,17.01
2022-09-01T00:27:16.650Z,17.00
2022-09-01T00:29:46.837Z,17.01
2022-09-01T00:32:14.501Z,17.01
2022-09-01T00:34:42.031Z,16.99
2022-09-01T00:37:09.679Z,16.98
2022-09-01T00:39:37.247Z,16.97
2022-09-01T00:42:05.125Z,16.94
2022-09-01T00:44:32.778Z,16.94
2022-09-01T00:47:01.685Z,16.92
2022-09-01T00:49:31.530Z,16.90
2022-09-01T00:52:05.298Z,16.87
2022-09-01T00:54:34.810Z,16.86
2022-09-01T00:57:03.192Z,16.83
2022-09-01T00:59:31.033Z,16.81
2022-09-01T01:01:58.640Z,16.77
2022-09-01T01:04:27.535Z,16.75
2022-09-01T01:07:01.622Z,16.72
2022-09-01T01:09:31.666Z,16.68
2022-09-01T01:12:00.155Z,16.66
2022-09-01T01:14:29.048Z,16.64
2022-09-01T01:16:56.706Z,16.59
2022-09-01T01:19:43.304Z,16.57
2022-09-01T01:22:32.967Z,16.54
2022-09-01T01:25:02.102Z,16.51
2022-09-01T01:27:33.629Z,16.48
2022-09-01T01:30:11.126Z,16.44
2022-09-01T01:32:47.722Z,16.41
2022-09-01T01:35:16.796Z,16.38
2022-09-01T01:37:49.179Z,16.35
2022-09-01T01:40:22.114Z,16.31
2022-09-01T01:42:50.632Z,16.27
2022-09-01T01:45:19.661Z,16.24
2022-09-01T01:47:50.264Z,16.18
2022-09-01T01:50:18.724Z,16.14
2022-09-01T01:52:47.215Z,16.09
2022-09-01T01:55:19.325Z,16.04
2022-09-01T01:57:49.919Z,15.98
2022-09-01T02:00:19.622Z,15.92
2022-09-01T02:02:57.151Z,15.88
2022-09-01T02:05:26.922Z,15.81
2022-09-01T02:07:59.960Z,15.75
2022-09-01T02:10:30.913Z,15.68
2022-09-01T02:13:03.604Z,15.63
2022-09-01T02:15:32.953Z,15.57
2022-09-01T02:18:00.598Z,15.51
2022-09-01T02:20:33.327Z,15.44
2022-09-01T02:23:09.381Z,15.39
2022-09-01T02:25:45.875Z,15.35
2022-09-01T02:28:23.657Z,15.31
2022-09-01T02:30:53.311Z,15.27
2022-09-01T02:33:22.051Z,15.23
2022-09-01T02:35:52.448Z,15.19
2022-09-01T02:38:21.053Z,15.16
2022-09-01T02:40:49.115Z,15.14
2022-09-01T02:43:19.512Z,15.10
2022-09-01T02:45:54.296Z,15.06
2022-09-01T02:48:23.844Z,15.04
2022-09-01T02:50:52.036Z,15.02
2022-09-01T02:53:20.986Z,14.99
2022-09-01T02:55:48.546Z,14.98
2022-09-01T02:58:19.072Z,14.95
2022-09-01T03:00:47.096Z,14.94
2022-09-01T03:03:21.756Z,14.90
2022-09-01T03:05:52.323Z,14.89
2022-09-01T03:08:20.031Z,14.87
2022-09-01T03:10:47.789Z,14.85
2022-09-01T03:13:16.752Z,14.83
2022-09-01T03:15:44.875Z,14.82
2022-09-01T03:18:13.635Z,14.80
2022-09-01T03:20:46.396Z,14.78
2022-09-01T03:23:16.013Z,14.76
2022-09-01T03:25:48.160Z,14.75
2022-09-01T03:28:16.169Z,14.74
2022-09-01T03:30:46.692Z,14.73
2022-09-01T03:33:14.237Z,14.72
2022-09-01T03:35:44.602Z,14.70
2022-09-01T03:38:22.962Z,14.67
2022-09-01T03:40:52.679Z,14.67
2022-09-01T03:43:23.452Z,14.66
2022-09-01T03:45:51.084Z,14.64
2022-09-01T03:48:19.363Z,14.61
2022-09-01T03:50:50.067Z,14.60
2022-09-01T03:53:19.428Z,14.57
2022-09-01T03:55:47.871Z,14.57
2022-09-01T03:58:18.999Z,14.56
2022-09-01T04:00:48.929Z,14.53
2022-09-01T04:03:28.954Z,14.51
2022-09-01T04:06:02.227Z,14.49
2022-09-01T04:08:32.773Z,14.47
2022-09-01T04:11:02.908Z,14.46
2022-09-01T04:13:35.341Z,14.43
2022-09-01T04:16:03.267Z,14.43
2022-09-01T04:18:30.659Z,14.42
2022-09-01T04:20:59.397Z,14.40
2022-09-01T04:23:29.911Z,14.38
2022-09-01T04:26:00.219Z,14.38
2022-09-01T04:28:33.985Z,14.36
2022-09-01T04:31:07.368Z,14.35
2022-09-01T04:33:39.844Z,14.33
2022-09-01T04:36:19.217Z,14.31
2022-09-01T04:38:50.279Z,14.30
2022-09-01T04:41:20.595Z,14.27
2022-09-01T04:43:49.307Z,14.26
2022-09-01T04:46:17.250Z,14.23
2022-09-01T04:48:46.070Z,14.19
2022-09-01T04:51:16.305Z,14.17
2022-09-01T04:53:53.662Z,14.16
2022-09-01T04:56:23.223Z,14.12
2022-09-01T04:59:08.225Z,14.10
2022-09-01T05:01:43.335Z,14.08
2022-09-01T05:04:14.486Z,14.07
2022-09-01T05:06:42.889Z,14.06
2022-09-01T05:09:12.322Z,14.05
2022-09-01T05:11:53.003Z,14.04
2022-09-01T05:14:27.063Z,14.03
2022-09-01T05:16:57.221Z,14.02
2022-09-01T05:19:28.889Z,14.01
2022-09-01T05:21:59.857Z,14.00
2022-09-01T05:24:30.523Z,14.01
2022-09-01T05:27:01.196Z,14.02
2022-09-01T05:29:29.675Z,14.02
2022-09-01T05:31:58.703Z,14.04
2022-09-01T05:34:27.964Z,14.05
2022-09-01T05:36:57.924Z,14.06
2022-09-01T05:39:26.000Z,14.07
2022-09-01T05:41:55.558Z,14.09
2022-09-01T05:44:23.570Z,14.10
2022-09-01T05:46:53.599Z,14.13
2022-09-01T05:49:21.899Z,14.16
2022-09-01T05:51:51.761Z,14.18
2022-09-01T05:54:25.697Z,14.19
2022-09-01T05:56:58.700Z,14.23
2022-09-01T05:59:33.203Z,14.26
2022-09-01T06:02:12.332Z,14.30
2022-09-01T06:04:42.135Z,14.34
2022-09-01T06:07:16.280Z,14.37
2022-09-01T06:09:49.315Z,14.41
2022-09-01T06:12:23.464Z,14.46
2022-09-01T06:14:52.974Z,14.52
2022-09-01T06:17:24.657Z,14.57
2022-09-01T06:19:55.967Z,14.63
2022-09-01T06:22:24.751Z,14.67
2022-09-01T06:24:56.883Z,14.72
2022-09-01T06:27:29.970Z,14.77
2022-09-01T06:29:58.238Z,14.84
2022-09-01T06:32:27.237Z,14.90
2022-09-01T06:34:58.138Z,14.97
2022-09-01T06:37:26.782Z,15.03
2022-09-01T06:39:58.633Z,15.11
2022-09-01T06:42:27.110Z,15.19
2022-09-01T06:45:01.156Z,15.28
2022-09-01T06:47:29.563Z,15.42
2022-09-01T06:49:58.871Z,15.54
2022-09-01T06:52:27.907Z,15.70
2022-09-01T06:54:57.773Z,15.99
2022-09-01T07:00:18.780Z,17.08
2022-09-01T07:02:48.511Z,17.80
2022-09-01T07:08:31.760Z,19.74
2022-09-01T07:14:17.030Z,21.32
2022-09-01T07:16:51.749Z,21.96
2022-09-01T07:19:22.001Z,22.51
2022-09-01T07:22:35.594Z,22.89
2022-09-01T07:27:40.466Z,24.05
2022-09-01T07:30:11.966Z,24.58
2022-09-01T07:32:47.589Z,24.96
2022-09-01T07:35:16.891Z,25.21
2022-09-01T07:42:31.578Z,23.44
2022-09-01T07:43:45.892Z,26.47
2022-09-01T07:46:40.080Z,26.81
2022-09-01T07:49:30.693Z,27.14
2022-09-01T07:52:03.798Z,27.59
2022-09-01T07:54:33.953Z,27.97
2022-09-01T07:57:01.844Z,28.23
2022-09-01T07:59:31.050Z,28.44
2022-09-01T08:02:06.588Z,28.67
2022-09-01T08:04:35.656Z,28.88
2022-09-01T08:07:06.823Z,29.21
2022-09-01T08:09:43.624Z,29.38
2022-09-01T08:12:12.137Z,29.66
2022-09-01T08:14:46.637Z,29.91
2022-09-01T08:17:18.307Z,30.07
2022-09-01T08:20:09.276Z,30.18
2022-09-01T08:23:00.227Z,30.17
2022-09-01T08:25:37.088Z,30.27
2022-09-01T08:28:05.723Z,30.36
2022-09-01T08:30:34.313Z,30.49
2022-09-01T08:33:17.805Z,30.40
2022-09-01T08:35:49.791Z,30.17
2022-09-01T08:38:19.212Z,30.24
2022-09-01T08:40:56.333Z,30.26
2022-09-01T08:43:32.484Z,30.38
2022-09-01T08:46:08.769Z,30.54
2022-09-01T08:51:36.570Z,30.87
2022-09-01T08:54:07.533Z,30.88
2022-09-01T08:56:37.469Z,30.70
2022-09-01T08:59:07.672Z,30.61
2022-09-01T09:02:01.797Z,30.64
2022-09-01T09:04:47.545Z,30.92
2022-09-01T09:07:22.399Z,31.21
2022-09-01T09:09:54.225Z,31.46
2022-09-01T09:12:33.669Z,31.75
2022-09-01T09:15:07.891Z,32.03
2022-09-01T09:17:37.972Z,31.93
2022-09-01T09:20:06.050Z,31.91
2022-09-01T09:22:35.154Z,32.02
2022-09-01T09:25:06.728Z,31.86
2022-09-01T09:27:35.354Z,31.95
2022-09-01T09:30:09.204Z,32.08
2022-09-01T09:33:24.923Z,32.03
2022-09-01T09:35:39.918Z,32.07
2022-09-01T09:38:23.908Z,32.25
2022-09-01T09:41:16.019Z,32.46
2022-09-01T09:43:48.238Z,32.63
2022-09-01T09:46:25.324Z,32.82
2022-09-01T09:49:07.795Z,32.95
2022-09-01T09:51:36.232Z,32.96
2022-09-01T09:54:16.307Z,33.00
2022-09-01T09:56:45.461Z,32.89
2022-09-01T09:59:33.941Z,32.87
2022-09-01T10:02:23.157Z,33.07
2022-09-01T10:04:56.062Z,33.12
2022-09-01T10:07:25.638Z,33.02
2022-09-01T10:09:55.908Z,32.98
2022-09-01T10:12:24.784Z,33.13
2022-09-01T10:14:54.106Z,33.22
2022-09-01T10:17:24.602Z,33.22
2022-09-01T10:19:55.542Z,33.25
2022-09-01T10:22:23.489Z,33.12
2022-09-01T10:24:51.187Z,32.90
2022-09-01T10:27:23.064Z,32.82
2022-09-01T10:30:12.099Z,32.64
2022-09-01T10:32:49.214Z,32.43
2022-09-01T10:35:23.743Z,32.35
2022-09-01T10:37:52.159Z,32.49
2022-09-01T10:40:30.365Z,32.70
2022-09-01T10:43:05.550Z,32.83
2022-09-01T10:45:34.206Z,32.93
2022-09-01T10:48:30.449Z,32.96
2022-09-01T10:51:18.259Z,33.11
2022-09-01T10:53:47.148Z,33.12
2022-09-01T10:56:28.413Z,32.90
2022-09-01T11:05:14.308Z,32.49
2022-09-01T11:10:35.239Z,31.88
2022-09-01T11:13:21.750Z,31.84
2022-09-01T11:15:50.806Z,31.84
2022-09-01T11:18:26.020Z,31.57
2022-09-01T11:20:55.428Z,31.32
2022-09-01T11:23:24.984Z,31.39
2022-09-01T11:28:42.687Z,31.37
2022-09-01T11:31:23.391Z,31.23
2022-09-01T11:34:12.106Z,31.08
2022-09-01T11:36:48.199Z,31.06
2022-09-01T11:39:30.000Z,30.99
2022-09-01T11:42:04.258Z,30.84
2022-09-01T11:44:37.803Z,30.68
2022-09-01T11:47:13.529Z,30.55
2022-09-01T11:49:47.927Z,30.54
2022-09-01T11:52:16.097Z,30.41
2022-09-01T11:54:46.517Z,30.17
2022-09-01T11:57:25.020Z,29.85
2022-09-01T11:59:52.576Z,29.57
2022-09-01T12:02:25.183Z,29.39
2022-09-01T12:04:54.260Z,29.32
2022-09-01T12:07:27.632Z,29.36
2022-09-01T12:09:55.672Z,29.40
2022-09-01T12:12:28.519Z,29.36
2022-09-01T12:15:05.574Z,29.26
2022-09-01T12:17:35.445Z,29.30
2022-09-01T12:20:25.436Z,29.45
2022-09-01T12:22:55.862Z,29.48
2022-09-01T12:25:24.735Z,29.19
2022-09-01T12:27:53.939Z,28.70
2022-09-01T12:30:21.760Z,28.45
2022-09-01T12:32:51.056Z,28.47
2022-09-01T12:35:22.063Z,28.56
2022-09-01T12:37:50.446Z,28.50
2022-09-01T12:40:26.039Z,28.44
2022-09-01T12:42:54.219Z,28.30
2022-09-01T12:45:38.271Z,28.36
2022-09-01T12:48:07.601Z,28.48
2022-09-01T12:50:43.617Z,28.62
2022-09-01T12:53:19.807Z,28.57
2022-09-01T12:55:59.594Z,28.49
2022-09-01T12:58:29.377Z,28.42
2022-09-01T13:00:58.465Z,28.17
2022-09-01T13:03:29.481Z,28.03
2022-09-01T13:05:58.504Z,27.98
2022-09-01T13:08:28.337Z,27.92
2022-09-01T13:10:57.128Z,27.78
2022-09-01T13:13:26.262Z,27.69
2022-09-01T13:15:54.690Z,27.67
2022-09-01T13:18:23.045Z,27.68
2022-09-01T13:20:52.939Z,27.66
2022-09-01T13:23:21.564Z,27.59
2022-09-01T13:25:49.320Z,27.59
2022-09-01T13:28:17.935Z,27.68
2022-09-01T13:30:46.808Z,27.64
2022-09-01T13:33:22.794Z,27.61
2022-09-01T13:35:52.819Z,27.65
2022-09-01T13:38:23.387Z,27.72
2022-09-01T13:40:51.884Z,27.84
2022-09-01T13:43:21.012Z,27.89
2022-09-01T13:45:51.433Z,27.92
2022-09-01T13:48:19.269Z,27.88
2022-09-01T13:53:38.522Z,27.49
2022-09-01T13:56:06.248Z,27.30
2022-09-01T13:58:33.742Z,27.04
2022-09-01T14:01:01.975Z,26.82
2022-09-01T14:03:32.109Z,26.65
2022-09-01T14:05:59.802Z,26.47
2022-09-01T14:08:27.420Z,26.31
2022-09-01T14:10:56.404Z,26.34
2022-09-01T14:13:25.667Z,26.29
2022-09-01T14:15:54.066Z,26.16
2022-09-01T14:18:22.313Z,26.13
2022-09-01T14:20:51.555Z,26.16
2022-09-01T14:23:19.803Z,26.11
2022-09-01T14:25:47.926Z,26.04
2022-09-01T14:28:20.677Z,25.97
2022-09-01T14:30:48.899Z,25.93
2022-09-01T14:33:16.503Z,25.86
2022-09-01T14:35:46.110Z,25.85
2022-09-01T14:38:14.792Z,25.73
2022-09-01T14:40:43.197Z,25.55
2022-09-01T14:43:12.656Z,25.34
2022-09-01T14:45:44.537Z,25.22
2022-09-01T14:48:12.644Z,25.20
2022-09-01T14:50:41.220Z,25.20
2022-09-01T14:53:09.176Z,25.16
2022-09-01T14:55:37.156Z,25.15
2022-09-01T14:58:05.002Z,25.11
2022-09-01T15:00:35.788Z,25.03
2022-09-01T15:03:04.886Z,24.92
2022-09-01T15:05:37.700Z,24.80
2022-09-01T15:08:08.324Z,24.76
2022-09-01T15:10:36.512Z,24.66
2022-09-01T15:13:04.785Z,24.57
2022-09-01T15:15:32.864Z,24.55
2022-09-01T15:18:01.185Z,24.56
2022-09-01T15:20:48.770Z,24.54
2022-09-01T15:23:17.378Z,24.51
2022-09-01T15:25:45.431Z,24.45
2022-09-01T15:28:13.217Z,24.37
2022-09-01T15:30:41.374Z,24.32
2022-09-01T15:33:14.816Z,24.32
2022-09-01T15:35:45.006Z,24.34
2022-09-01T15:38:16.164Z,24.32
2022-09-01T15:40:55.453Z,24.24
2022-09-01T15:43:26.373Z,24.14
2022-09-01T15:45:53.936Z,24.07
2022-09-01T15:48:21.496Z,24.02
2022-09-01T15:50:50.706Z,23.99
2022-09-01T15:53:19.194Z,23.96
2022-09-01T15:55:47.592Z,23.91
2022-09-01T15:58:15.793Z,23.80
2022-09-01T16:00:44.644Z,23.68
2022-09-01T16:03:12.341Z,23.62
2022-09-01T16:05:41.039Z,23.60
2022-09-01T16:08:11.465Z,23.57
2022-09-01T16:10:40.601Z,23.51
2022-09-01T16:13:08.266Z,23.45
2022-09-01T16:15:36.128Z,23.34
2022-09-01T16:18:13.939Z,23.29
2022-09-01T16:20:46.899Z,23.29
2022-09-01T16:23:17.178Z,23.26
2022-09-01T16:25:45.322Z,23.22
2022-09-01T16:28:18.501Z,23.15
2022-09-01T16:30:46.329Z,23.11
2022-09-01T16:33:19.886Z,23.03
2022-09-01T16:35:53.019Z,23.00
2022-09-01T16:38:27.222Z,22.94
2022-09-01T16:40:58.356Z,22.88
2022-09-01T16:43:31.269Z,22.79
2022-09-01T16:46:04.058Z,22.70
2022-09-01T16:48:38.244Z,22.60
2022-09-01T16:51:09.381Z,22.52
2022-09-01T16:53:49.582Z,22.43
2022-09-01T16:56:24.215Z,22.31
2022-09-01T16:58:55.919Z,22.19
2022-09-01T17:01:30.821Z,22.12
2022-09-01T17:04:06.552Z,22.06
2022-09-01T17:06:37.319Z,21.98
2022-09-01T17:09:10.385Z,21.95
2022-09-01T17:11:49.203Z,21.89
2022-09-01T17:14:22.059Z,21.81
2022-09-01T17:16:51.036Z,21.71
2022-09-01T17:19:20.163Z,21.63
2022-09-01T17:21:53.788Z,21.59
2022-09-01T17:24:31.909Z,21.52
2022-09-01T17:27:07.600Z,21.47
2022-09-01T17:29:41.036Z,21.40
2022-09-01T17:32:14.026Z,21.35
2022-09-01T17:34:48.389Z,21.26
2022-09-01T17:37:23.003Z,21.19
2022-09-01T17:40:02.416Z,21.11
2022-09-01T17:42:32.685Z,21.03
2022-09-01T17:45:05.994Z,20.97
2022-09-01T17:47:37.433Z,20.92
2022-09-01T17:50:11.084Z,20.85
2022-09-01T17:52:52.507Z,20.75
2022-09-01T17:55:32.286Z,20.67
2022-09-01T17:58:04.757Z,20.61
2022-09-01T18:00:35.971Z,20.57
2022-09-01T18:03:10.444Z,20.51
2022-09-01T18:05:41.004Z,20.44
2022-09-01T18:08:13.563Z,20.37
2022-09-01T18:10:45.088Z,20.30
2022-09-01T18:13:25.916Z,20.25
2022-09-01T18:16:06.572Z,20.19
2022-09-01T18:18:35.850Z,20.16
2022-09-01T18:21:05.239Z,20.13
2022-09-01T18:23:36.392Z,20.08
2022-09-01T18:26:09.269Z,20.02
2022-09-01T18:28:37.019Z,19.97
2022-09-01T18:31:10.681Z,19.91
2022-09-01T18:33:43.957Z,19.86
2022-09-01T18:36:17.672Z,19.83
2022-09-01T18:38:50.000Z,19.80
2022-09-01T18:41:26.590Z,19.76
2022-09-01T18:43:57.125Z,19.73
2022-09-01T18:46:27.546Z,19.70
2022-09-01T18:49:00.899Z,19.67
2022-09-01T18:51:40.108Z,19.63
2022-09-01T18:54:10.393Z,19.57
2022-09-01T18:56:45.350Z,19.54
2022-09-01T18:59:18.857Z,19.51
2022-09-01T19:01:51.331Z,19.48
2022-09-01T19:04:23.873Z,19.46
2022-09-01T19:06:59.714Z,19.42
2022-09-01T19:09:30.414Z,19.38
2022-09-01T19:12:07.023Z,19.35
2022-09-01T19:14:38.303Z,19.32
2022-09-01T19:17:12.111Z,19.31
2022-09-01T19:19:43.628Z,19.25
2022-09-01T19:22:15.584Z,19.23
2022-09-01T19:24:45.156Z,19.21
2022-09-01T19:27:15.576Z,19.18
2022-09-01T19:29:46.539Z,19.17
2022-09-01T19:32:18.254Z,19.16
2022-09-01T19:34:47.764Z,19.14
2022-09-01T19:37:15.890Z,19.12
2022-09-01T19:39:45.485Z,19.08
2022-09-01T19:42:18.796Z,19.06
2022-09-01T19:44:50.888Z,19.03
2022-09-01T19:47:22.046Z,19.02
2022-09-01T19:49:53.636Z,18.99
2022-09-01T19:52:26.509Z,18.96
2022-09-01T19:55:00.295Z,18.93
2022-09-01T19:57:30.869Z,18.89
2022-09-01T20:00:03.065Z,18.85
2022-09-01T20:02:33.347Z,18.84
2022-09-01T20:05:05.842Z,18.82
2022-09-01T20:07:37.474Z,18.81
2022-09-01T20:10:13.140Z,18.78
2022-09-01T20:12:45.024Z,18.75
2022-09-01T20:15:17.512Z,18.72
2022-09-01T20:17:49.304Z,18.69
2022-09-01T20:20:19.270Z,18.65
2022-09-01T20:22:51.693Z,18.64
2022-09-01T20:25:20.704Z,18.61
2022-09-01T20:27:58.755Z,18.59
2022-09-01T20:30:27.714Z,18.57
2022-09-01T20:33:00.195Z,18.56
2022-09-01T20:35:35.172Z,18.53
2022-09-01T20:38:31.396Z,18.51
2022-09-01T20:41:02.106Z,18.49
2022-09-01T20:43:33.178Z,18.48
2022-09-01T20:46:00.809Z,18.45
2022-09-01T20:48:32.162Z,18.41
2022-09-01T20:51:02.483Z,18.38
2022-09-01T20:53:38.234Z,18.35
2022-09-01T20:56:08.681Z,18.31
2022-09-01T20:58:40.602Z,18.29
2022-09-01T21:01:17.610Z,18.28
2022-09-01T21:03:51.158Z,18.24
2022-09-01T21:06:26.041Z,18.21
2022-09-01T21:08:58.428Z,18.17
2022-09-01T21:11:33.470Z,18.13
2022-09-01T21:14:08.856Z,18.10
2022-09-01T21:16:48.203Z,18.07
2022-09-01T21:19:20.292Z,18.04
2022-09-01T21:21:51.556Z,18.02
2022-09-01T21:24:19.386Z,17.98
2022-09-01T21:26:47.944Z,17.96
2022-09-01T21:29:28.711Z,17.94
2022-09-01T21:31:56.943Z,17.92
2022-09-01T21:34:24.516Z,17.90
2022-09-01T21:36:52.160Z,17.87
2022-09-01T21:39:23.084Z,17.85
2022-09-01T21:41:50.815Z,17.81
2022-09-01T21:44:18.465Z,17.79
2022-09-01T21:46:47.492Z,17.77
2022-09-01T21:49:15.165Z,17.74
2022-09-01T21:51:42.988Z,17.72
2022-09-01T21:54:10.591Z,17.67
2022-09-01T21:56:38.283Z,17.64
2022-09-01T21:59:05.898Z,17.61
2022-09-01T22:01:35.757Z,17.56
2022-09-01T22:04:05.583Z,17.54
2022-09-01T22:06:33.683Z,17.50
2022-09-01T22:09:02.105Z,17.45
2022-09-01T22:11:30.043Z,17.43
2022-09-01T22:13:58.837Z,17.38
2022-09-01T22:16:26.655Z,17.36
2022-09-01T22:18:54.253Z,17.33
2022-09-01T22:21:23.684Z,17.30
2022-09-01T22:23:51.665Z,17.27
2022-09-01T22:26:21.000Z,17.26
2022-09-01T22:28:48.991Z,17.23
2022-09-01T22:31:17.649Z,17.20
2022-09-01T22:33:45.241Z,17.18
2022-09-01T22:36:20.145Z,17.15
2022-09-01T22:38:49.140Z,17.14
2022-09-01T22:41:18.214Z,17.13
2022-09-01T22:43:45.830Z,17.11
2022-09-01T22:46:13.621Z,17.09
2022-09-01T22:48:41.577Z,17.09
2022-09-01T22:51:09.875Z,17.07
2022-09-01T22:53:37.883Z,17.05
2022-09-01T22:56:11.982Z,17.03
2022-09-01T22:58:39.571Z,17.02
2022-09-01T23:01:10.046Z,16.99
2022-09-01T23:03:37.673Z,16.97
2022-09-01T23:06:07.070Z,16.93
2022-09-01T23:08:34.716Z,16.91
2022-09-01T23:11:02.469Z,16.87
2022-09-01T23:13:31.616Z,16.84
2022-09-01T23:16:02.844Z,16.81
2022-09-01T23:18:31.557Z,16.78
2022-09-01T23:20:59.771Z,16.77
2022-09-01T23:23:27.376Z,16.74
2022-09-01T23:25:54.984Z,16.71
2022-09-01T23:28:22.826Z,16.68
2022-09-01T23:30:51.909Z,16.66
2022-09-01T23:33:20.068Z,16.62
2022-09-01T23:35:48.974Z,16.60
2022-09-01T23:38:18.023Z,16.57
2022-09-01T23:40:47.198Z,16.54
2022-09-01T23:43:15.666Z,16.53
2022-09-01T23:45:44.747Z,16.48
2022-09-01T23:48:14.365Z,16.46
2022-09-01T23:50:42.785Z,16.44
2022-09-01T23:53:10.431Z,16.43
2022-09-01T23:55:42.982Z,16.42
2022-09-01T23:58:10.767Z,16.41
